Decoded Metar for KGPH ( in ) (IATA:) | Meteo·Mobile Aviation Weather
aviador You're here:

KGPH Decoded Metar

in
Report Time2018-08-21 19:35:00
UTC Time2018-08-21 19:55:28
Flight Rules vfr VFR
Wind330° at 08 Gusting to 15 kt
W.Decomp.*RWY 36: 6.9 kt HW 4 kt LCW
W.Rank330° ranks 9
Current wind is below 330° avg. (8.1)
Visibility9999 m
Phenomena:N/A
Clouds:Scattered 042 Hf
Scattered 050 Hf
Expected CloudBase > 4,400 ft AGL from Temp-Dew spread
CeilingNone
Temp27°C
Dew Point16°C (51% RH)
Heat Index27.5°C
AAT26.1°C
QNH1019 hPa
Raw Report
KGPH 211935Z AUTO 33008G15KT 10SM SCT042 SCT050 27/16 A3010 RMK
AO2=

Extra information for KGPH:More info

Social comments